Time;durP1;ratioP1;P1;durP2;ratioP2;P2;SDS_P1;SDS_P2;PMS_P1;PMS_P2;Temp;Humidity;BMP_temperature;BMP_pressure;BME280_temperature;BME280_humidity;BME280_pressure;Samples;Min_cycle;Max_cycle;Signal;HPM_P1;HPM_P2
2023/05/29 00:00:33;;;;;;;13.02;8.45;;;14.20;99.90;;;;;;4590658;19;20066;-25
2023/05/29 00:02:25;;;;;;;12.95;8.73;;;14.20;99.90;;;;;;4590814;19;20010;-24
2023/05/29 00:03:58;;;;;;;11.83;8.20;;;14.20;99.90;;;;;;4590284;19;20401;-25
2023/05/29 00:05:49;;;;;;;12.03;8.20;;;14.20;99.90;;;;;;4590458;19;20018;-25
2023/05/29 00:07:21;;;;;;;13.80;8.17;;;14.20;99.90;;;;;;4590571;19;20010;-25
2023/05/29 00:08:54;;;;;;;16.30;8.23;;;14.20;99.90;;;;;;4591017;19;20006;-24
2023/05/29 00:10:26;;;;;;;14.17;9.17;;;14.20;99.90;;;;;;4589980;19;20018;-24
2023/05/29 00:12:01;;;;;;;14.67;8.73;;;14.20;99.90;;;;;;4590381;19;20031;-29
2023/05/29 00:13:32;;;;;;;13.50;8.47;;;14.20;99.90;;;;;;4587914;19;20078;-23
2023/05/29 00:15:05;;;;;;;13.07;8.37;;;14.20;99.90;;;;;;4589903;19;20003;-24
2023/05/29 00:16:37;;;;;;;11.77;8.00;;;14.20;99.90;;;;;;4589970;19;20010;-23
2023/05/29 00:18:10;;;;;;;13.63;9.03;;;14.20;99.90;;;;;;4590262;19;20011;-23
2023/05/29 00:19:43;;;;;;;12.63;8.63;;;14.20;99.90;;;;;;4590192;19;20027;-23
2023/05/29 00:21:14;;;;;;;12.13;8.60;;;14.10;99.90;;;;;;4590600;19;20353;-29
2023/05/29 00:22:45;;;;;;;12.27;9.15;;;14.10;99.90;;;;;;4590088;19;20022;-26
2023/05/29 00:24:17;;;;;;;12.68;8.77;;;14.10;99.90;;;;;;4589192;19;20023;-23
2023/05/29 00:25:48;;;;;;;15.50;8.85;;;14.10;99.90;;;;;;4587949;19;20007;-26
2023/05/29 00:27:21;;;;;;;12.67;8.77;;;14.10;99.90;;;;;;4589549;19;20006;-28
2023/05/29 00:28:53;;;;;;;14.30;8.37;;;14.10;99.90;;;;;;4590036;19;20014;-24
2023/05/29 00:30:24;;;;;;;10.77;7.50;;;14.10;99.90;;;;;;4590270;19;20010;-23
2023/05/29 00:31:56;;;;;;;13.60;8.48;;;14.10;99.90;;;;;;4590150;19;20011;-21
2023/05/29 00:33:27;;;;;;;12.88;8.82;;;14.10;99.90;;;;;;4589748;19;20015;-24
2023/05/29 00:35:00;;;;;;;14.63;9.20;;;14.00;99.90;;;;;;4588462;19;20018;-24
2023/05/29 00:36:31;;;;;;;13.10;8.40;;;14.00;99.90;;;;;;4590008;19;20457;-27
2023/05/29 00:38:03;;;;;;;14.65;9.98;;;14.00;99.90;;;;;;4589129;19;20014;-25
2023/05/29 00:39:35;;;;;;;13.03;8.93;;;14.00;99.90;;;;;;4588465;19;20010;-23
2023/05/29 00:41:07;;;;;;;12.15;8.43;;;14.00;99.90;;;;;;4589620;19;20083;-24
2023/05/29 00:42:39;;;;;;;13.43;8.33;;;14.00;99.90;;;;;;4588510;19;20010;-23
2023/05/29 00:44:12;;;;;;;12.87;8.37;;;13.90;99.90;;;;;;4589903;19;20096;-23
2023/05/29 00:45:44;;;;;;;13.18;8.27;;;13.90;99.90;;;;;;4589892;19;20018;-26
2023/05/29 00:47:15;;;;;;;11.95;8.68;;;13.90;99.90;;;;;;4590235;19;20362;-24
2023/05/29 00:48:47;;;;;;;14.10;8.53;;;13.90;99.90;;;;;;4590295;19;20010;-23
2023/05/29 00:50:20;;;;;;;13.15;8.07;;;13.90;99.90;;;;;;4588837;19;20027;-23
2023/05/29 00:51:54;;;;;;;14.20;7.90;;;13.90;99.90;;;;;;4588283;19;20014;-27
2023/05/29 00:53:25;;;;;;;12.70;7.80;;;13.80;99.90;;;;;;4588765;19;20011;-24
2023/05/29 00:54:57;;;;;;;11.88;7.72;;;13.90;99.90;;;;;;4589214;19;20018;-24
2023/05/29 00:56:29;;;;;;;12.97;8.30;;;13.90;99.90;;;;;;4588385;19;20070;-26
2023/05/29 00:58:02;;;;;;;11.43;7.60;;;13.80;99.90;;;;;;4588495;19;20049;-24
2023/05/29 00:59:36;;;;;;;11.37;7.47;;;13.90;99.90;;;;;;4588739;19;20014;-22
2023/05/29 01:01:10;;;;;;;11.40;7.33;;;13.80;99.90;;;;;;4588378;19;20081;-28
2023/05/29 01:02:44;;;;;;;13.20;7.97;;;13.80;99.90;;;;;;4588151;19;20019;-23
2023/05/29 01:04:17;;;;;;;12.40;7.63;;;13.80;99.90;;;;;;4588419;19;20019;-25
2023/05/29 01:05:48;;;;;;;12.13;7.82;;;13.80;99.90;;;;;;4589518;19;20039;-23
2023/05/29 01:07:21;;;;;;;11.60;7.57;;;13.80;99.90;;;;;;4588688;19;20002;-24
2023/05/29 01:08:55;;;;;;;11.73;8.33;;;13.80;99.90;;;;;;4588809;19;20016;-24
2023/05/29 01:10:31;;;;;;;13.47;7.90;;;13.80;99.90;;;;;;4589033;19;20553;-23
2023/05/29 01:12:37;;;;;;;13.97;7.50;;;13.80;99.90;;;;;;4588180;19;20469;-24
2023/05/29 01:14:11;;;;;;;9.50;6.77;;;13.80;99.90;;;;;;4589687;19;20073;-26
2023/05/29 01:16:06;;;;;;;9.77;6.93;;;13.80;99.90;;;;;;4588164;19;20049;-25
2023/05/29 01:17:40;;;;;;;12.17;7.83;;;13.80;99.90;;;;;;4590054;19;20006;-24
2023/05/29 01:19:44;;;;;;;11.90;7.40;;;13.80;99.90;;;;;;4588904;19;20493;-29
2023/05/29 01:21:51;;;;;;;12.30;6.53;;;13.80;99.90;;;;;;4588064;19;20010;-29
2023/05/29 01:24:24;;;;;;;11.30;7.20;;;13.80;99.90;;;;;;4586345;19;20036;-23
2023/05/29 01:25:56;;;;;;;;;;;13.70;99.90;;;;;;4588686;19;20585;-24
2023/05/29 01:27:28;;;;;;;11.10;7.80;;;13.70;99.90;;;;;;4590996;19;19910;-23
2023/05/29 01:29:00;;;;;;;10.70;7.10;;;13.80;99.90;;;;;;4590884;19;20010;-24
2023/05/29 01:30:32;;;;;;;11.00;6.90;;;13.80;99.90;;;;;;4591088;19;20010;-24
2023/05/29 01:32:03;;;;;;;9.65;6.85;;;13.80;99.90;;;;;;4591648;19;20015;-23
2023/05/29 01:33:40;;;;;;;10.90;6.35;;;13.70;99.90;;;;;;4591096;19;20513;-24
2023/05/29 01:35:12;;;;;;;10.87;6.63;;;13.70;99.90;;;;;;4591268;19;20022;-23
2023/05/29 01:36:43;;;;;;;11.05;6.80;;;13.80;99.90;;;;;;4591041;19;20469;-26
2023/05/29 01:38:16;;;;;;;10.60;6.20;;;13.80;99.90;;;;;;4591244;19;20485;-25
2023/05/29 01:39:47;;;;;;;12.25;6.90;;;13.80;99.90;;;;;;4591078;19;20011;-24
2023/05/29 01:41:22;;;;;;;9.87;6.30;;;13.70;99.90;;;;;;4590917;19;20006;-24
2023/05/29 01:42:54;;;;;;;11.23;8.03;;;13.80;99.90;;;;;;4591293;19;20078;-23
2023/05/29 01:44:25;;;;;;;11.50;8.07;;;13.80;99.90;;;;;;4590692;19;20398;-24
2023/05/29 01:45:59;;;;;;;12.00;8.23;;;13.70;99.90;;;;;;4590907;19;20010;-24
2023/05/29 01:47:32;;;;;;;11.63;7.30;;;13.70;99.90;;;;;;4590623;19;20519;-22
2023/05/29 01:49:04;;;;;;;;;;;13.70;99.90;;;;;;4592198;19;20003;-24
2023/05/29 01:50:35;;;;;;;11.17;7.50;;;13.70;99.90;;;;;;4590287;19;19914;-23
2023/05/29 01:52:07;;;;;;;10.77;6.87;;;13.60;99.90;;;;;;4590809;19;20019;-27
2023/05/29 01:53:40;;;;;;;12.03;8.07;;;13.60;99.90;;;;;;4590707;19;20143;-26
2023/05/29 01:55:12;;;;;;;12.63;8.23;;;13.60;99.90;;;;;;4591102;19;20006;-28
2023/05/29 01:56:46;;;;;;;10.73;7.68;;;13.60;99.90;;;;;;4590457;19;20475;-23
2023/05/29 01:58:17;;;;;;;12.90;8.50;;;13.60;99.90;;;;;;4590508;19;20362;-23
2023/05/29 01:59:49;;;;;;;11.45;8.05;;;13.60;99.90;;;;;;4591013;19;20015;-23
2023/05/29 02:01:21;;;;;;;14.17;8.50;;;13.60;99.90;;;;;;4590846;19;20007;-26
2023/05/29 02:02:54;;;;;;;11.97;7.93;;;13.60;99.90;;;;;;4591066;19;20007;-24
2023/05/29 02:04:28;;;;;;;12.83;8.13;;;13.60;99.90;;;;;;4593286;19;20031;-23
2023/05/29 02:06:00;;;;;;;11.83;8.13;;;13.60;99.90;;;;;;4590546;19;20006;-24
2023/05/29 02:07:31;;;;;;;11.30;7.90;;;13.60;99.90;;;;;;4592308;19;20006;-23
2023/05/29 02:09:03;;;;;;;11.55;7.68;;;13.60;99.90;;;;;;4592596;19;20015;-29
2023/05/29 02:10:34;;;;;;;11.33;7.43;;;13.60;99.90;;;;;;4591592;19;20092;-23
2023/05/29 02:12:07;;;;;;;11.20;7.67;;;13.50;99.90;;;;;;4592420;19;20010;-26
2023/05/29 02:13:42;;;;;;;10.37;7.40;;;13.60;99.90;;;;;;4593332;19;20017;-22
2023/05/29 02:15:13;;;;;;;9.77;6.60;;;13.60;99.90;;;;;;4592643;19;20029;-23
2023/05/29 02:16:45;;;;;;;12.50;7.70;;;13.60;99.90;;;;;;4592613;19;20370;-23
2023/05/29 02:18:18;;;;;;;9.80;6.90;;;13.60;99.90;;;;;;4592692;19;20006;-27
2023/05/29 02:19:50;;;;;;;12.50;7.67;;;13.50;99.90;;;;;;4592454;19;20072;-23
2023/05/29 02:21:23;;;;;;;14.40;8.03;;;13.50;99.90;;;;;;4592487;19;20010;-25
2023/05/29 02:22:54;;;;;;;11.93;8.68;;;13.50;99.90;;;;;;4592922;19;20013;-24
2023/05/29 02:24:26;;;;;;;11.23;7.73;;;13.50;99.90;;;;;;4591883;19;20010;-24
2023/05/29 02:25:59;;;;;;;11.47;8.10;;;13.50;99.90;;;;;;4591235;19;20030;-25
2023/05/29 02:27:30;;;;;;;12.50;8.55;;;13.50;99.90;;;;;;4591429;19;20532;-24
2023/05/29 02:29:05;;;;;;;11.03;8.30;;;13.50;99.90;;;;;;4591963;19;20047;-23
2023/05/29 02:30:37;;;;;;;10.43;7.57;;;13.40;99.90;;;;;;4592889;19;20074;-23
2023/05/29 02:32:08;;;;;;;15.88;11.07;;;13.40;99.90;;;;;;4590763;19;20031;-22
2023/05/29 02:33:40;;;;;;;14.35;9.80;;;13.40;99.90;;;;;;4591987;19;20472;-23
2023/05/29 02:35:17;;;;;;;12.77;9.17;;;13.40;99.90;;;;;;4592503;19;20021;-28
2023/05/29 02:36:48;;;;;;;13.20;8.27;;;13.40;99.90;;;;;;4591075;19;20017;-22
2023/05/29 02:38:20;;;;;;;12.03;8.67;;;13.30;99.90;;;;;;4592128;19;20007;-25
2023/05/29 02:39:54;;;;;;;12.67;8.50;;;13.30;99.90;;;;;;4592337;19;20066;-27
2023/05/29 02:41:25;;;;;;;11.73;8.02;;;13.30;99.90;;;;;;4592630;19;20066;-23
2023/05/29 02:42:59;;;;;;;13.03;8.77;;;13.30;99.90;;;;;;4592975;19;20015;-24
2023/05/29 02:44:30;;;;;;;11.45;8.32;;;13.30;99.90;;;;;;4591004;19;20477;-23
2023/05/29 02:46:01;;;;;;;12.30;8.35;;;13.30;99.90;;;;;;4591595;19;20014;-27
2023/05/29 02:47:35;;;;;;;11.23;8.10;;;13.30;99.90;;;;;;4592447;19;19998;-25
2023/05/29 02:49:06;;;;;;;13.17;8.00;;;13.30;99.90;;;;;;4591058;19;20006;-22
2023/05/29 02:50:39;;;;;;;12.57;7.93;;;13.20;99.90;;;;;;4591286;19;20014;-27
2023/05/29 02:52:11;;;;;;;12.18;8.45;;;13.30;99.90;;;;;;4592281;19;20018;-25
2023/05/29 02:53:42;;;;;;;;;;;13.30;99.90;;;;;;4593343;19;20043;-24
2023/05/29 02:55:13;;;;;;;13.27;8.67;;;13.30;99.90;;;;;;4591993;19;19911;-27
2023/05/29 02:56:45;;;;;;;;;;;13.30;99.90;;;;;;4592681;19;20014;-26
2023/05/29 02:58:16;;;;;;;13.50;9.30;;;13.30;99.90;;;;;;4592036;19;19914;-25
2023/05/29 02:59:47;;;;;;;11.98;8.02;;;13.30;99.90;;;;;;4592431;19;19999;-26
2023/05/29 03:01:20;;;;;;;13.40;9.27;;;13.30;99.90;;;;;;4591624;19;20015;-24
2023/05/29 03:02:52;;;;;;;12.50;9.00;;;13.30;99.90;;;;;;4591927;19;20031;-24
2023/05/29 03:04:24;;;;;;;12.70;8.55;;;13.30;99.90;;;;;;4592038;19;20023;-26
2023/05/29 03:05:55;;;;;;;;;;;13.30;99.90;;;;;;4592958;19;20394;-29
2023/05/29 03:07:28;;;;;;;14.93;10.97;;;13.30;99.90;;;;;;4591391;19;20249;-29
2023/05/29 03:09:00;;;;;;;13.73;9.90;;;13.30;99.90;;;;;;4591879;19;20011;-25
2023/05/29 03:10:32;;;;;;;14.77;10.15;;;13.30;99.90;;;;;;4591839;19;20025;-25
2023/05/29 03:12:04;;;;;;;15.53;11.00;;;13.30;99.90;;;;;;4591462;19;20363;-23
2023/05/29 03:13:37;;;;;;;15.27;10.23;;;13.30;99.90;;;;;;4590317;19;20013;-24
2023/05/29 03:15:08;;;;;;;15.90;10.43;;;13.20;99.90;;;;;;4590217;19;20456;-23
2023/05/29 03:16:45;;;;;;;13.40;9.60;;;13.30;99.90;;;;;;4591421;19;20010;-22
2023/05/29 03:18:16;;;;;;;13.57;9.53;;;13.30;99.90;;;;;;4591981;19;20018;-24
2023/05/29 03:19:48;;;;;;;13.63;9.50;;;13.20;99.90;;;;;;4590048;19;20027;-25
2023/05/29 03:21:21;;;;;;;15.00;10.50;;;13.30;99.90;;;;;;4591132;19;20044;-27
2023/05/29 03:22:54;;;;;;;12.97;9.10;;;13.30;99.90;;;;;;4590071;19;20360;-24
2023/05/29 03:24:25;;;;;;;;;;;13.30;99.90;;;;;;4590869;19;20396;-25
2023/05/29 03:25:58;;;;;;;14.20;9.53;;;13.30;99.90;;;;;;4589810;19;20357;-26
2023/05/29 03:27:32;;;;;;;14.60;9.30;;;13.30;99.90;;;;;;4589821;19;20035;-24
2023/05/29 03:29:05;;;;;;;15.98;9.93;;;13.30;99.90;;;;;;4590862;19;20015;-24
2023/05/29 03:30:36;;;;;;;14.07;10.27;;;13.30;99.90;;;;;;4590727;19;20014;-23
2023/05/29 03:32:07;;;;;;;14.60;10.35;;;13.30;99.90;;;;;;4591171;19;20018;-24
2023/05/29 03:33:39;;;;;;;14.73;9.48;;;13.30;99.90;;;;;;4591555;19;20025;-24
2023/05/29 03:35:11;;;;;;;15.53;10.97;;;13.30;99.90;;;;;;4591258;19;20074;-24
2023/05/29 03:36:42;;;;;;;14.13;9.80;;;13.40;99.90;;;;;;4589787;19;20019;-23
2023/05/29 03:38:15;;;;;;;15.37;9.50;;;13.40;99.90;;;;;;4590658;19;20015;-23
2023/05/29 03:39:48;;;;;;;17.07;9.93;;;13.30;99.90;;;;;;4591025;19;20018;-25
2023/05/29 03:41:21;;;;;;;15.17;10.57;;;13.30;99.90;;;;;;4591520;19;20455;-24
2023/05/29 03:42:53;;;;;;;14.45;9.88;;;13.40;99.90;;;;;;4589744;19;20350;-24
2023/05/29 03:44:24;;;;;;;13.68;9.00;;;13.40;99.90;;;;;;4590483;19;20021;-24
2023/05/29 03:45:56;;;;;;;16.27;9.80;;;13.50;99.90;;;;;;4591020;19;20006;-23
2023/05/29 03:47:28;;;;;;;15.90;10.70;;;13.50;99.90;;;;;;4589438;19;20074;-22
2023/05/29 03:49:00;;;;;;;12.97;9.03;;;13.50;99.90;;;;;;4588712;19;20014;-24
2023/05/29 03:50:32;;;;;;;13.43;10.20;;;13.60;99.90;;;;;;4591043;19;20030;-24
2023/05/29 03:52:05;;;;;;;13.30;9.43;;;13.60;99.90;;;;;;4591272;19;20030;-25
2023/05/29 03:53:36;;;;;;;13.68;9.20;;;13.70;99.90;;;;;;4590854;19;20014;-24
2023/05/29 03:55:14;;;;;;;13.17;9.10;;;13.70;99.90;;;;;;4590531;19;20066;-24
2023/05/29 03:56:47;;;;;;;15.57;9.90;;;13.70;99.90;;;;;;4590655;19;20020;-23
2023/05/29 03:58:18;;;;;;;11.57;8.38;;;13.70;99.90;;;;;;4591118;19;20002;-24
2023/05/29 03:59:50;;;;;;;12.77;9.00;;;13.80;99.90;;;;;;4590737;19;20083;-22
2023/05/29 04:01:22;;;;;;;11.90;8.95;;;13.80;99.90;;;;;;4590611;19;20007;-23
2023/05/29 04:02:55;;;;;;;13.13;9.40;;;13.80;99.90;;;;;;4590425;19;20021;-24
2023/05/29 04:04:30;;;;;;;13.17;9.30;;;13.90;99.90;;;;;;4589598;19;20023;-25
2023/05/29 04:06:02;;;;;;;13.90;9.37;;;13.80;99.90;;;;;;4590216;19;20475;-23
2023/05/29 04:07:39;;;;;;;13.50;8.90;;;13.80;99.90;;;;;;4590518;19;20014;-24
2023/05/29 04:09:10;;;;;;;12.80;8.73;;;13.80;99.90;;;;;;4589121;19;20039;-23
2023/05/29 04:10:41;;;;;;;;;;;13.80;99.90;;;;;;4591128;19;20070;-24
2023/05/29 04:12:13;;;;;;;13.70;9.70;;;13.80;99.90;;;;;;4590126;19;19943;-24
2023/05/29 04:13:47;;;;;;;12.53;9.67;;;13.90;99.90;;;;;;4589272;19;20015;-26
2023/05/29 04:15:19;;;;;;;12.47;9.40;;;13.90;99.90;;;;;;4589999;19;20042;-24
2023/05/29 04:16:51;;;;;;;14.50;9.77;;;13.90;99.90;;;;;;4590094;19;20006;-26
2023/05/29 04:18:23;;;;;;;13.60;9.43;;;13.90;99.90;;;;;;4589907;19;20015;-25
2023/05/29 04:19:55;;;;;;;15.27;10.80;;;13.90;99.90;;;;;;4590388;19;20030;-24
2023/05/29 04:21:26;;;;;;;14.45;10.50;;;13.90;99.90;;;;;;4590291;19;20429;-23
2023/05/29 04:22:57;;;;;;;16.30;10.95;;;14.00;99.90;;;;;;4590773;19;20021;-25
2023/05/29 04:24:31;;;;;;;13.98;10.57;;;13.90;99.90;;;;;;4589234;19;20030;-24
2023/05/29 04:26:05;;;;;;;11.83;9.13;;;13.90;99.90;;;;;;4583881;19;20011;-23
2023/05/29 04:27:37;;;;;;;13.43;10.83;;;14.00;99.90;;;;;;4589383;19;20010;-23
2023/05/29 04:29:09;;;;;;;15.13;10.15;;;14.00;99.90;;;;;;4590359;19;20457;-27
2023/05/29 04:30:41;;;;;;;14.53;9.80;;;14.00;99.90;;;;;;4588232;19;20420;-23
2023/05/29 04:32:16;;;;;;;15.57;10.17;;;14.00;99.90;;;;;;4589005;19;20025;-26
2023/05/29 04:33:49;;;;;;;14.53;9.77;;;14.00;99.90;;;;;;4589887;19;20056;-24
2023/05/29 04:35:21;;;;;;;13.40;9.90;;;14.10;99.90;;;;;;4589980;19;20013;-24
2023/05/29 04:36:52;;;;;;;12.93;9.67;;;14.00;99.90;;;;;;4588774;19;20007;-27
2023/05/29 04:38:25;;;;;;;;;;;14.00;99.90;;;;;;4589843;19;20036;-29
2023/05/29 04:39:57;;;;;;;14.27;10.27;;;14.10;99.90;;;;;;4589254;19;19925;-23
2023/05/29 04:41:30;;;;;;;;;;;14.10;99.90;;;;;;4589807;19;20361;-24
2023/05/29 04:43:04;;;;;;;14.80;9.80;;;14.10;99.90;;;;;;4589783;19;19934;-24
2023/05/29 04:44:36;;;;;;;16.23;9.53;;;14.10;99.90;;;;;;4588367;19;20015;-23
2023/05/29 04:47:57;;;;;;;16.10;10.10;;;14.10;99.90;;;;;;4590432;19;20006;-25
2023/05/29 04:49:28;;;;;;;13.63;10.02;;;14.20;99.90;;;;;;4588399;19;20018;-24
2023/05/29 04:51:00;;;;;;;13.35;10.18;;;14.20;99.90;;;;;;4587777;19;20063;-24
2023/05/29 04:52:32;;;;;;;12.68;10.02;;;14.20;99.90;;;;;;4588794;19;20006;-22
2023/05/29 04:54:03;;;;;;;;;;;14.20;99.90;;;;;;4589981;19;20070;-22
2023/05/29 04:55:34;;;;;;;15.17;10.27;;;14.20;99.90;;;;;;4587578;19;19943;-24
2023/05/29 04:57:06;;;;;;;17.93;11.63;;;14.20;99.90;;;;;;4589731;19;20006;-23
2023/05/29 04:58:37;;;;;;;16.15;11.60;;;14.20;99.90;;;;;;4590372;19;20010;-28
2023/05/29 05:00:11;;;;;;;14.70;10.48;;;14.20;99.90;;;;;;4591340;19;20010;-29
2023/05/29 05:01:43;;;;;;;16.73;11.57;;;14.30;99.90;;;;;;4592926;19;20019;-24
2023/05/29 05:03:16;;;;;;;16.97;11.50;;;14.20;99.90;;;;;;4593623;19;20018;-26
2023/05/29 05:04:47;;;;;;;17.30;11.87;;;14.20;99.90;;;;;;4591206;19;20013;-27
2023/05/29 05:06:19;;;;;;;;;;;14.30;99.90;;;;;;4593232;19;20035;-23
2023/05/29 05:07:50;;;;;;;18.23;11.38;;;14.30;99.90;;;;;;4593105;19;19918;-24
2023/05/29 05:09:21;;;;;;;15.68;11.82;;;14.30;99.90;;;;;;4593647;19;20034;-23
2023/05/29 05:10:52;;;;;;;18.33;11.50;;;14.30;99.90;;;;;;4593609;19;20074;-23
2023/05/29 05:12:24;;;;;;;13.75;10.32;;;14.40;99.90;;;;;;4592977;19;20021;-23
2023/05/29 05:13:56;;;;;;;;;;;14.40;99.90;;;;;;4593753;19;20022;-22
2023/05/29 05:15:27;;;;;;;12.73;9.38;;;14.40;99.90;;;;;;4590323;19;19915;-25
2023/05/29 05:16:58;;;;;;;8.75;7.22;;;14.50;99.90;;;;;;4593764;19;20092;-22
2023/05/29 05:18:30;;;;;;;11.07;7.53;;;14.50;99.90;;;;;;4593743;19;20029;-25
2023/05/29 05:20:03;;;;;;;10.32;7.35;;;14.50;99.90;;;;;;4593540;19;20379;-23
2023/05/29 05:21:35;;;;;;;9.70;7.13;;;14.50;99.90;;;;;;4593676;19;20587;-26
2023/05/29 05:23:07;;;;;;;9.13;7.45;;;14.50;99.90;;;;;;4592992;19;20034;-24
2023/05/29 05:24:38;;;;;;;10.13;7.10;;;14.60;99.90;;;;;;4590947;19;20015;-25
2023/05/29 05:26:09;;;;;;;8.27;7.22;;;14.60;99.90;;;;;;4589335;19;20063;-21
2023/05/29 05:27:40;;;;;;;9.30;7.75;;;14.60;99.90;;;;;;4592036;19;20014;-23
2023/05/29 05:29:13;;;;;;;9.70;7.55;;;14.60;99.90;;;;;;4591617;19;20078;-22
2023/05/29 05:30:44;;;;;;;9.55;7.32;;;14.70;99.90;;;;;;4593775;19;20014;-24
2023/05/29 05:32:15;;;;;;;9.15;7.38;;;14.70;99.90;;;;;;4593863;19;20380;-23
2023/05/29 05:33:47;;;;;;;8.75;7.75;;;14.70;99.90;;;;;;4592438;19;20011;-23
2023/05/29 05:35:19;;;;;;;10.95;8.15;;;14.70;99.90;;;;;;4591322;19;20018;-24
2023/05/29 05:36:50;;;;;;;9.95;8.48;;;14.70;99.90;;;;;;4590756;19;20046;-24
2023/05/29 05:38:22;;;;;;;;;;;14.70;99.90;;;;;;4591608;19;20018;-23
2023/05/29 05:39:53;;;;;;;12.23;8.48;;;14.70;99.90;;;;;;4591647;19;19919;-26
2023/05/29 05:41:25;;;;;;;12.23;8.27;;;14.70;99.90;;;;;;4593806;19;20019;-24
2023/05/29 05:42:56;;;;;;;9.85;8.68;;;14.70;99.90;;;;;;4590513;19;20015;-23
2023/05/29 05:44:27;;;;;;;9.60;7.90;;;14.80;99.90;;;;;;4592126;19;20006;-22
2023/05/29 05:45:58;;;;;;;10.38;8.57;;;14.80;99.90;;;;;;4590786;19;20010;-23
2023/05/29 05:47:30;;;;;;;9.00;7.93;;;14.80;99.90;;;;;;4592500;19;20021;-25
2023/05/29 05:49:01;;;;;;;10.95;8.23;;;14.80;99.90;;;;;;4592324;19;20015;-25
2023/05/29 05:50:32;;;;;;;11.35;8.40;;;14.80;99.90;;;;;;4590647;19;20018;-23
2023/05/29 05:52:04;;;;;;;;;;;14.80;99.90;;;;;;4589317;19;20010;-23
2023/05/29 05:53:35;;;;;;;9.00;7.20;;;14.80;99.90;;;;;;4590836;19;19918;-24
2023/05/29 05:55:07;;;;;;;12.02;8.10;;;14.80;99.90;;;;;;4593458;19;20026;-23
2023/05/29 05:56:39;;;;;;;11.93;7.68;;;14.80;99.90;;;;;;4592034;19;20007;-24
2023/05/29 05:58:10;;;;;;;11.18;7.50;;;14.90;99.90;;;;;;4593078;19;20048;-24
2023/05/29 05:59:41;;;;;;;10.27;8.30;;;14.90;99.90;;;;;;4591287;19;20010;-23
2023/05/29 06:01:14;;;;;;;13.55;7.93;;;14.90;99.90;;;;;;4591963;19;20018;-27
2023/05/29 06:02:45;;;;;;;12.02;7.75;;;14.90;99.90;;;;;;4590951;19;20018;-23
2023/05/29 06:04:17;;;;;;;9.07;6.75;;;14.90;99.90;;;;;;4591295;19;20010;-26
2023/05/29 06:05:50;;;;;;;;;;;14.90;99.90;;;;;;4590565;19;20022;-29
2023/05/29 06:07:21;;;;;;;9.25;6.20;;;15.00;99.90;;;;;;4590238;19;19929;-24
2023/05/29 06:08:56;;;;;;;8.93;7.10;;;15.00;99.90;;;;;;4590431;19;20011;-22
2023/05/29 06:10:27;;;;;;;8.60;6.65;;;15.00;99.90;;;;;;4591019;19;20025;-29
2023/05/29 06:11:59;;;;;;;9.70;6.57;;;15.00;99.90;;;;;;4589787;19;20419;-24
2023/05/29 06:13:31;;;;;;;9.88;6.63;;;15.00;99.90;;;;;;4591827;19;20025;-24
2023/05/29 06:15:04;;;;;;;8.75;5.68;;;15.10;99.90;;;;;;4592054;19;20033;-26
2023/05/29 06:16:35;;;;;;;10.45;6.57;;;15.10;99.90;;;;;;4590906;19;20014;-24
2023/05/29 06:18:07;;;;;;;8.48;6.90;;;15.10;99.90;;;;;;4591913;19;20007;-22
2023/05/29 06:19:38;;;;;;;8.65;6.15;;;15.10;99.90;;;;;;4592122;19;20070;-26
2023/05/29 06:21:11;;;;;;;9.35;5.85;;;15.10;99.90;;;;;;4590565;19;20010;-23
2023/05/29 06:22:42;;;;;;;10.20;7.05;;;15.10;99.90;;;;;;4589153;19;20014;-23
2023/05/29 06:24:14;;;;;;;8.75;6.43;;;15.20;99.90;;;;;;4588014;19;20028;-23
2023/05/29 06:25:45;;;;;;;9.13;5.97;;;15.20;99.90;;;;;;4588939;19;20022;-24
2023/05/29 06:27:17;;;;;;;7.78;5.68;;;15.30;99.90;;;;;;4592323;19;20010;-22
2023/05/29 06:28:49;;;;;;;8.27;5.40;;;15.30;99.90;;;;;;4592271;19;20026;-22
2023/05/29 06:30:20;;;;;;;8.90;6.13;;;15.30;99.90;;;;;;4592781;19;20022;-23
2023/05/29 06:31:51;;;;;;;8.85;6.30;;;15.40;99.90;;;;;;4589419;19;20357;-24
2023/05/29 06:33:24;;;;;;;7.63;5.15;;;15.30;99.90;;;;;;4590532;19;20013;-23
2023/05/29 06:34:55;;;;;;;7.15;4.57;;;15.40;99.90;;;;;;4591057;19;20018;-27
2023/05/29 06:36:26;;;;;;;7.63;5.15;;;15.40;99.90;;;;;;4589423;19;20036;-24
2023/05/29 06:37:57;;;;;;;7.10;4.95;;;15.40;99.90;;;;;;4589709;19;20010;-22
2023/05/29 06:39:29;;;;;;;;;;;15.50;99.90;;;;;;4589936;19;20495;-23
2023/05/29 06:41:00;;;;;;;6.75;4.18;;;15.50;99.90;;;;;;4589874;19;19945;-24
2023/05/29 06:42:32;;;;;;;5.70;3.70;;;15.50;99.90;;;;;;4592066;19;20471;-24
2023/05/29 06:44:03;;;;;;;;;;;15.50;99.90;;;;;;4591925;19;20044;-24
2023/05/29 06:45:35;;;;;;;6.47;3.90;;;15.60;99.90;;;;;;4591413;19;19925;-27
2023/05/29 06:47:07;;;;;;;9.18;3.42;;;15.60;99.90;;;;;;4591322;19;20363;-24
2023/05/29 06:48:38;;;;;;;6.82;3.47;;;15.60;99.90;;;;;;4589938;19;20116;-24
2023/05/29 06:50:10;;;;;;;6.97;3.55;;;15.60;99.90;;;;;;4590413;19;20014;-23
2023/05/29 06:51:44;;;;;;;4.70;2.95;;;15.60;99.90;;;;;;4589484;19;20014;-26
2023/05/29 06:53:16;;;;;;;5.68;3.58;;;15.70;99.90;;;;;;4590332;19;20022;-27
2023/05/29 06:54:48;;;;;;;6.45;3.45;;;15.70;99.90;;;;;;4591277;19;20019;-25
2023/05/29 06:56:22;;;;;;;3.70;2.78;;;15.70;99.90;;;;;;4591627;19;20014;-24
2023/05/29 06:57:55;;;;;;;4.32;2.67;;;15.70;99.90;;;;;;4591683;19;20018;-25
2023/05/29 06:59:26;;;;;;;3.70;2.65;;;15.70;99.90;;;;;;4591984;19;20014;-25
2023/05/29 07:00:59;;;;;;;4.70;3.50;;;15.70;99.90;;;;;;4591393;19;20010;-25
2023/05/29 07:02:32;;;;;;;4.53;2.97;;;15.80;99.90;;;;;;4590216;19;20515;-29
2023/05/29 07:04:04;;;;;;;6.10;3.08;;;15.80;99.90;;;;;;4591049;19;20362;-23
2023/05/29 07:05:36;;;;;;;5.05;3.00;;;15.80;99.90;;;;;;4592261;19;20006;-26
2023/05/29 07:07:07;;;;;;;6.13;3.40;;;15.90;99.90;;;;;;4590268;19;20437;-28
2023/05/29 07:08:38;;;;;;;6.22;3.08;;;15.90;99.90;;;;;;4591198;19;20032;-23
2023/05/29 07:10:10;;;;;;;4.85;3.38;;;15.90;99.90;;;;;;4591458;19;20030;-24
2023/05/29 07:11:41;;;;;;;4.70;2.80;;;15.90;99.90;;;;;;4590544;19;20006;-23
2023/05/29 07:13:15;;;;;;;6.13;2.97;;;15.90;99.90;;;;;;4591135;19;20034;-23
2023/05/29 07:14:48;;;;;;;5.07;2.80;;;15.90;99.90;;;;;;4591410;19;20031;-23
2023/05/29 07:16:19;;;;;;;5.38;2.63;;;15.90;99.90;;;;;;4588697;19;20432;-28
2023/05/29 07:17:50;;;;;;;5.10;2.63;;;16.00;99.90;;;;;;4591192;19;20357;-24
2023/05/29 07:19:22;;;;;;;4.40;2.90;;;16.00;99.90;;;;;;4590708;19;20044;-26
2023/05/29 07:20:55;;;;;;;5.88;2.50;;;16.00;99.90;;;;;;4591777;19;20031;-22
2023/05/29 07:22:26;;;;;;;4.70;2.63;;;16.00;99.90;;;;;;4590294;19;20449;-24
2023/05/29 07:23:59;;;;;;;4.60;2.88;;;16.00;99.90;;;;;;4589568;19;20018;-24
2023/05/29 07:25:30;;;;;;;5.28;2.60;;;16.10;99.90;;;;;;4589295;19;20106;-24
2023/05/29 07:27:02;;;;;;;3.80;2.53;;;16.10;99.90;;;;;;4590553;19;20018;-23
2023/05/29 07:28:33;;;;;;;;;;;16.20;99.90;;;;;;4590673;19;20022;-24
2023/05/29 07:30:06;;;;;;;7.60;3.42;;;16.20;99.90;;;;;;4590555;19;20359;-25
2023/05/29 07:31:40;;;;;;;5.97;3.30;;;16.20;99.90;;;;;;4588726;19;20020;-29
2023/05/29 07:33:11;;;;;;;5.30;2.50;;;16.20;99.90;;;;;;4590551;19;20014;-23
2023/05/29 07:34:44;;;;;;;4.38;2.70;;;16.20;99.90;;;;;;4591515;19;20010;-26
2023/05/29 07:36:17;;;;;;;3.80;2.40;;;16.30;99.90;;;;;;4589566;19;20035;-26
2023/05/29 07:37:49;;;;;;;4.07;2.38;;;16.30;99.90;;;;;;4589524;19;20025;-23
2023/05/29 07:39:21;;;;;;;5.32;2.60;;;16.30;99.90;;;;;;4590729;19;20003;-24
2023/05/29 07:40:54;;;;;;;4.95;2.45;;;16.30;99.90;;;;;;4591616;19;20006;-23
2023/05/29 07:42:28;;;;;;;3.75;2.20;;;16.30;99.90;;;;;;4590249;19;20017;-27
2023/05/29 07:43:59;;;;;;;5.22;2.50;;;16.30;99.90;;;;;;4590596;19;20010;-25
2023/05/29 07:45:30;;;;;;;4.25;2.35;;;16.30;99.90;;;;;;4590766;19;20019;-25
2023/05/29 07:47:02;;;;;;;5.32;2.40;;;16.30;99.90;;;;;;4591768;19;20018;-24
2023/05/29 07:48:33;;;;;;;3.92;2.15;;;16.40;99.90;;;;;;4589096;19;20015;-26
2023/05/29 07:50:05;;;;;;;4.60;2.60;;;16.40;99.90;;;;;;4590213;19;20014;-27
2023/05/29 07:51:37;;;;;;;5.00;2.72;;;16.40;99.90;;;;;;4590763;19;20013;-23
2023/05/29 07:53:08;;;;;;;3.83;2.30;;;16.40;99.90;;;;;;4590676;19;20015;-25
2023/05/29 07:54:40;;;;;;;3.80;2.08;;;16.40;99.90;;;;;;4588986;19;20011;-23
2023/05/29 07:56:11;;;;;;;;;;;16.40;99.90;;;;;;4589071;19;20014;-24
2023/05/29 07:57:43;;;;;;;4.03;2.20;;;16.40;99.90;;;;;;4590267;19;19927;-27
2023/05/29 07:59:14;;;;;;;;;;;16.50;99.90;;;;;;4591110;19;20006;-24
2023/05/29 08:00:46;;;;;;;3.90;2.40;;;16.50;99.90;;;;;;4590356;19;20362;-23
2023/05/29 08:02:17;;;;;;;3.85;2.13;;;16.50;99.90;;;;;;4590598;19;20019;-25
2023/05/29 08:03:48;;;;;;;;;;;16.50;99.90;;;;;;4589025;19;20006;-28